Map

Track Data

SID SEASON NUMBER BASIN SUBBASIN NAME ISO_TIME NATURE LAT LON WMO_WIND WMO_PRES WMO_AGENCY TRACK_TYPE DIST2LAND LANDFALL IFLAG USA_AGENCY USA_ATCF_ID USA_LAT USA_LON USA_RECORD USA_STATUS USA_WIND USA_PRES USA_SSHS USA_R34_NE USA_R34_SE USA_R34_SW USA_R34_NW USA_R50_NE USA_R50_SE USA_R50_SW USA_R50_NW USA_R64_NE USA_R64_SE USA_R64_SW USA_R64_NW USA_POCI USA_ROCI USA_RMW USA_EYE TOKYO_LAT TOKYO_LON TOKYO_GRADE TOKYO_WIND TOKYO_PRES TOKYO_R50_DIR TOKYO_R50_LONG TOKYO_R50_SHORT TOKYO_R30_DIR TOKYO_R30_LONG TOKYO_R30_SHORT TOKYO_LAND CMA_LAT CMA_LON CMA_CAT CMA_WIND CMA_PRES HKO_LAT HKO_LON HKO_CAT HKO_WIND HKO_PRES NEWDELHI_LAT NEWDELHI_LON NEWDELHI_GRADE NEWDELHI_WIND NEWDELHI_PRES NEWDELHI_CI NEWDELHI_DP NEWDELHI_POCI REUNION_LAT REUNION_LON REUNION_TYPE REUNION_WIND REUNION_PRES REUNION_TNUM REUNION_CI REUNION_RMW REUNION_R34_NE REUNION_R34_SE REUNION_R34_SW REUNION_R34_NW REUNION_R50_NE REUNION_R50_SE REUNION_R50_SW REUNION_R50_NW REUNION_R64_NE REUNION_R64_SE REUNION_R64_SW REUNION_R64_NW BOM_LAT BOM_LON BOM_TYPE BOM_WIND BOM_PRES BOM_TNUM BOM_CI BOM_RMW BOM_R34_NE BOM_R34_SE BOM_R34_SW BOM_R34_NW BOM_R50_NE BOM_R50_SE BOM_R50_SW BOM_R50_NW BOM_R64_NE BOM_R64_SE BOM_R64_SW BOM_R64_NW BOM_ROCI BOM_POCI BOM_EYE BOM_POS_METHOD BOM_PRES_METHOD NADI_LAT NADI_LON NADI_CAT NADI_WIND NADI_PRES WELLINGTON_LAT WELLINGTON_LON WELLINGTON_WIND WELLINGTON_PRES DS824_LAT DS824_LON DS824_STAGE DS824_WIND DS824_PRES TD9636_LAT TD9636_LON TD9636_STAGE TD9636_WIND TD9636_PRES TD9635_LAT TD9635_LON TD9635_WIND TD9635_PRES TD9635_ROCI NEUMANN_LAT NEUMANN_LON NEUMANN_CLASS NEUMANN_WIND NEUMANN_PRES MLC_LAT MLC_LON MLC_CLASS MLC_WIND MLC_PRES USA_GUST BOM_GUST BOM_GUST_PER REUNION_GUST REUNION_GUST_PER USA_SEAHGT USA_SEARAD_NE USA_SEARAD_SE USA_SEARAD_SW USA_SEARAD_NW STORM_SPEED STORM_DIR
1950335S09074 1951 109 SI MM NOT_NAMED 1950-12-01 06:00:00 TS -8.70000 73.8000 main 1798 1798 O________OO___ jtwc_sh SH041951 -8.70000 73.8000 -1 -8.70000 73.8000 TC 25 -8.70000 73.8000 7 6 231
1950335S09074 1951 109 SI MM NOT_NAMED 1950-12-01 09:00:00 TS -8.90205 73.5491 main 1832 1832 P________PP___ SH041951 -8.89753 73.5500 -1 -8.89753 73.5500 TC 25 -8.91108 73.5472 7 6 231
1950335S09074 1951 109 SI MM NOT_NAMED 1950-12-01 12:00:00 TS -9.10589 73.2984 main 1861 1861 O________OP___ jtwc_sh SH041951 -9.10000 73.3000 -1 -9.10000 73.3000 TC 25 -9.11767 73.2953 7 6 230
1950335S09074 1951 109 SI MM NOT_NAMED 1950-12-01 15:00:00 TS -9.31013 73.0486 main 1896 1896 P________PP___ SH041951 -9.30748 73.0500 -1 -9.30748 73.0500 TC 30 -9.31542 73.0458 7 6 231
1950335S09074 1951 109 SI MM NOT_NAMED 1950-12-01 18:00:00 TS -9.50000 72.8000 main 1925 1925 O________OO___ jtwc_sh SH041951 -9.50000 72.8000 -1 -9.50000 72.8000 TC 35 -9.50000 72.8000 2 6 235
1950335S09074 1951 109 SI MM NOT_NAMED 1950-12-01 21:00:00 TS -9.65662 72.5526 main 1955 1944 P________PP___ SH041951 -9.64998 72.5499 -1 -9.64998 72.5499 TC 35 -9.66990 72.5579 2 6 237
1950335S09074 1951 109 SI MM NOT_NAMED 1950-12-02 00:00:00 TS -9.81162 72.3049 main 1944 1913 O________OP___ jtwc_sh SH041951 -9.80000 72.3000 -1 -9.80000 72.3000 TC 35 -9.83486 72.3147 2 6 235
1950335S09074 1951 109 SI MM NOT_NAMED 1950-12-02 03:00:00 TS -9.99244 72.0597 main 1913 1874 P________PP___ SH041951 -9.98496 72.0575 -1 -9.98496 72.0575 TC 35 -10.0074 72.0641 2 6 232
1950335S09074 1951 109 SI MM NOT_NAMED 1950-12-02 06:00:00 TS -10.2000 71.8000 main 1874 1834 O________OO___ jtwc_sh SH041951 -10.2000 71.8000 -1 -10.2000 71.8000 TC 35 -10.2000 71.8000 2 7 230
1950335S09074 1951 109 SI MM NOT_NAMED 1950-12-02 09:00:00 TS -10.4405 71.5111 main 1834 1787 P________PP___ SH041951 -10.4425 71.5075 -1 -10.4425 71.5075 TC 35 -10.4365 71.5185 2 8 230
1950335S09074 1951 109 SI MM NOT_NAMED 1950-12-02 12:00:00 TS -10.6975 71.2075 main 1787 1748 O________OP___ jtwc_sh SH041951 -10.7000 71.2000 -1 -10.7000 71.2000 TC 35 -10.6924 71.2225 2 8 229
1950335S09074 1951 109 SI MM NOT_NAMED 1950-12-02 15:00:00 TS -10.9557 70.9051 main 1741 1701 P________PP___ SH041951 -10.9575 70.9000 -1 -10.9575 70.9000 TC 35 -10.9521 70.9153 2 8 230
1950335S09074 1951 109 SI MM NOT_NAMED 1950-12-02 18:00:00 TS -11.2000 70.6000 main 1701 1662 O________OO___ jtwc_sh SH041951 -11.2000 70.6000 -1 -11.2000 70.6000 TC 35 -11.2000 70.6000 2 8 233
1950335S09074 1951 109 SI MM NOT_NAMED 1950-12-02 21:00:00 TS -11.4097 70.2989 main 1662 1622 P________PP___ SH041951 -11.4074 70.3074 -1 -11.4074 70.3074 TC 35 -11.4143 70.2820 2 7 236
1950335S09074 1951 109 SI MM NOT_NAMED 1950-12-03 00:00:00 TS -11.6050 69.9857 main 1622 1583 O________OP___ jtwc_sh SH041951 -11.6000 70.0000 -1 -11.6000 70.0000 TC 35 -11.6149 69.9573 2 8 239
1950335S09074 1951 109 SI MM NOT_NAMED 1950-12-03 03:00:00 TS -11.8027 69.6430 main 1574 1534 P________PP___ SH041951 -11.8000 69.6500 -1 -11.8000 69.6500 TC 35 -11.8080 69.6289 2 8 240
1950335S09074 1951 109 SI MM NOT_NAMED 1950-12-03 06:00:00 TS -12.0000 69.3000 main 1534 1495 O________OO___ jtwc_sh SH041951 -12.0000 69.3000 -1 -12.0000 69.3000 TC 35 -12.0000 69.3000 2 7 238
1950335S09074 1951 109 SI MM NOT_NAMED 1950-12-03 09:00:00 TS -12.1999 68.9956 main 1495 1455 P________PP___ SH041951 -12.1999 68.9999 -1 -12.1999 68.9999 TC 35 -12.1998 68.9870 2 7 236
1950335S09074 1951 109 SI MM NOT_NAMED 1950-12-03 12:00:00 TS -12.3999 68.6907 main 1455 1416 O________OP___ jtwc_sh SH041951 -12.4000 68.7000 -1 -12.4000 68.7000 TC 35 -12.3997 68.6722 2 7 237
1950335S09074 1951 109 SI MM NOT_NAMED 1950-12-03 15:00:00 TS -12.5999 68.3537 main 1416 1368 P________PP___ SH041951 -12.6000 68.3575 -1 -12.6000 68.3575 TC 35 -12.5997 68.3463 2 8 239
1950335S09074 1951 109 SI MM NOT_NAMED 1950-12-03 18:00:00 TS -12.8000 68.0000 main 1368 1328 O________OO___ jtwc_sh SH041951 -12.8000 68.0000 -1 -12.8000 68.0000 TC 35 -12.8000 68.0000 2 8 240
1950335S09074 1951 109 SI MM NOT_NAMED 1950-12-03 21:00:00 TS -12.9917 67.6570 main 1328 1281 P________PP___ SH041951 -12.9999 67.6649 -1 -12.9999 67.6649 TC 35 -12.9754 67.6412 2 8 241
1950335S09074 1951 109 SI MM NOT_NAMED 1950-12-04 00:00:00 TS -13.1849 67.2863 main 1281 1233 O________OP___ jtwc_sh SH041951 -13.2000 67.3000 -1 -13.2000 67.3000 TC 35 -13.1546 67.2590 2 9 244
1950335S09074 1951 109 SI MM NOT_NAMED 1950-12-04 03:00:00 TS -13.3755 66.8640 main 1233 1177 P________PP___ SH041951 -13.3850 66.8723 -1 -13.3850 66.8723 TC 35 -13.3565 66.8473 2 10 244
1950335S09074 1951 109 SI MM NOT_NAMED 1950-12-04 06:00:00 TS -13.6000 66.4000 main 1177 1113 O________OO___ jtwc_sh SH041951 -13.6000 66.4000 -1 -13.6000 66.4000 TC 35 -13.6000 66.4000 2 11 241
1950335S09074 1951 109 SI MM NOT_NAMED 1950-12-04 09:00:00 TS -13.8836 65.9136 main 1113 1051 P________PP___ SH041951 -13.8699 65.9148 -1 -13.8699 65.9148 TC 35 -13.9110 65.9111 2 12 238
1950335S09074 1951 109 SI MM NOT_NAMED 1950-12-04 12:00:00 TS -14.2208 65.3959 main 1051 980 O________OP___ jtwc_sh SH041951 -14.2000 65.4000 -1 -14.2000 65.4000 TC 35 -14.2625 65.3877 2 13 235
1950335S09074 1951 109 SI MM NOT_NAMED 1950-12-04 15:00:00 TS -14.6109 64.8485 main 972 902 P________PP___ SH041951 -14.6000 64.8501 -1 -14.6000 64.8501 TC 35 -14.6328 64.8454 2 13 234
1950335S09074 1951 109 SI MM NOT_NAMED 1950-12-04 18:00:00 TS -15.0000 64.3000 main 902 840 O________OO___ jtwc_sh SH041951 -15.0000 64.3000 -1 -15.0000 64.3000 TC 35 -15.0000 64.3000 2 12 235
1950335S09074 1951 109 SI MM NOT_NAMED 1950-12-04 21:00:00 TS -15.3155 63.7899 main 840 777 P________PP___ SH041951 -15.3073 63.7996 -1 -15.3073 63.7996 TC 35 -15.3319 63.7705 2 12 238
1950335S09074 1951 109 SI MM NOT_NAMED 1950-12-05 00:00:00 TS -15.6190 63.2806 main 777 715 O________OP___ jtwc_sh SH041951 -15.6000 63.3000 -1 -15.6000 63.3000 TC 35 -15.6571 63.2418 2 12 238
1950335S09074 1951 109 SI MM NOT_NAMED 1950-12-05 03:00:00 TS -15.9596 62.7391 main 699 622 P________PP___ SH041951 -15.9500 62.7500 -1 -15.9500 62.7500 TC 35 -15.9788 62.7173 2 14 235
1950335S09074 1951 109 SI MM NOT_NAMED 1950-12-05 06:00:00 TS -16.4385 62.0692 reunion main 622 544 O____O___OO___ jtwc_sh SH041951 -16.3000 62.2000 -1 -18.1000 60.5000 99 9.90000 -16.3000 62.2000 TC 35 -16.3000 62.2000 2 15 234
1950335S09074 1951 109 SI MM NOT_NAMED 1950-12-05 09:00:00 TS -16.8190 61.4874 main 544 483 P____P___PP___ SH041951 -16.5998 61.6922 -1 -18.1164 60.2988 99 -16.5998 61.6922 TC 35 -16.6086 61.6720 2 13 236
1950335S09074 1951 109 SI MM NOT_NAMED 1950-12-05 12:00:00 TS -17.1537 60.9681 main 475 414 O____P___OP___ jtwc_sh SH041951 -16.9000 61.2000 -1 -18.1417 60.1013 99 -16.9000 61.2000 TC 35 -16.9199 61.1543 2 12 235
1950335S09074 1951 109 SI MM NOT_NAMED 1950-12-05 15:00:00 TS -17.4753 60.4888 main 414 368 P____P___PP___ SH041951 -17.2349 60.6924 -1 -18.1853 59.9112 99 -17.2349 60.6924 TC 35 -17.2462 60.6594 2 10 234
1950335S09074 1951 109 SI MM NOT_NAMED 1950-12-05 18:00:00 TS -17.7641 60.0830 main 360 306 O____P___OO___ jtwc_sh SH041951 -17.6000 60.2000 -1 -18.2563 59.7322 99 -17.6000 60.2000 TC 35 -17.6000 60.2000 2 10 232
1950335S09074 1951 109 SI MM NOT_NAMED 1950-12-05 21:00:00 TS -18.0775 59.6841 main 306 253 P____P___PP___ SH041951 -17.9850 59.7199 -1 -18.3640 59.5680 99 -17.9850 59.7199 TC 35 -17.9759 59.7286 2 10 227
1950335S09074 1951 109 SI MM NOT_NAMED 1950-12-06 00:00:00 TS -18.4251 59.3307 main 253 199 O____P___OP___ jtwc_sh SH041951 -18.4000 59.3000 -1 -18.5177 59.4221 99 -18.4000 59.3000 TC 35 -18.3826 59.3009 2 10 220
1950335S09074 1951 109 SI MM NOT_NAMED 1950-12-06 03:00:00 TS -18.8048 59.0352 main 199 152 P____P___PP___ SH041951 -18.8349 58.9475 -1 -18.7266 59.2982 99 -18.8349 58.9475 TC 35 -18.8229 58.9477 2 9 211
1950335S09074 1951 109 SI MM NOT_NAMED 1950-12-06 06:00:00 TS -19.2250 58.8250 reunion main 152 118 O____O___OO___ jtwc_sh SH041951 -19.3000 58.7000 -1 -19.0000 59.2000 99 9.90000 -19.3000 58.7000 TC 35 -19.3000 58.7000 2 9 200
1950335S09074 1951 109 SI MM NOT_NAMED 1950-12-06 09:00:00 TS -19.6747 58.6884 main 113 86 P____P___PP___ SH041951 -19.7774 58.5400 -1 -19.3429 59.1302 99 -19.7774 58.5400 TC 35 -19.8012 58.5435 2 10 190
1950335S09074 1951 109 SI MM NOT_NAMED 1950-12-06 12:00:00 TS -20.1705 58.6464 main 84 83 O____P___OP___ jtwc_sh SH041951 -20.3000 58.5000 -1 -19.7429 59.0877 99 -20.3000 58.5000 TC 35 -20.3392 58.4980 2 10 182
1950335S09074 1951 109 SI MM NOT_NAMED 1950-12-06 15:00:00 TS -20.7152 58.6798 main 103 103 P____P___PP___ SH041951 -20.8850 58.5475 -1 -20.1832 59.0707 99 -20.8850 58.5475 TC 35 -20.9076 58.5535 2 11 173
1950335S09074 1951 109 SI MM NOT_NAMED 1950-12-06 18:00:00 TS -21.2867 58.7943 main 145 145 O____P___OO___ jtwc_sh SH041951 -21.5000 58.7000 -1 -20.6470 59.0772 99 -21.5000 58.7000 TC 35 -21.5000 58.7000 2 12 167
1950335S09074 1951 109 SI MM NOT_NAMED 1950-12-06 21:00:00 TS -21.8532 58.9642 main 206 206 P____P___PP___ SH041951 -22.0925 58.9127 -1 -21.1174 59.1053 99 -22.0925 58.9127 TC 35 -22.1103 58.9261 2 11 161
1950335S09074 1951 109 SI MM NOT_NAMED 1950-12-07 00:00:00 TS -22.3624 59.1889 main 263 263 O____P___OP___ jtwc_sh SH041951 -22.7000 59.2000 -1 -21.5776 59.1532 99 -22.7000 59.2000 TC 35 -22.7336 59.2143 2 11 157
1950335S09074 1951 109 SI MM NOT_NAMED 1950-12-07 03:00:00 TS -22.8134 59.4113 main 311 311 P____P___PP___ SH041951 -23.3402 59.5367 -1 -22.0107 59.2187 99 -23.3402 59.5367 TC 35 -23.3650 59.5454 2 8 155
1950335S09074 1951 109 SI MM NOT_NAMED 1950-12-07 06:00:00 TS -23.0857 59.5571 reunion main 350 302 O____O___OO___ jtwc_sh SH041951 -24.0000 59.9000 -1 -22.4000 59.3000 99 9.90000 -24.0000 59.9000 TC 35 -24.0000 59.9000 2 1 0
1950335S09074 1951 109 SI MM NOT_NAMED 1950-12-07 09:00:00 NR -22.7327 59.3949 main 302 302 _____P________ SH041951 -1 -22.7327 59.3949 99 TC 2 1 326
1950335S09074 1951 109 SI MM NOT_NAMED 1950-12-07 12:00:00 NR -23.0123 59.5018 main 335 335 _____P________ -1 -23.0123 59.5018 99 2 6 158
1950335S09074 1951 109 SI MM NOT_NAMED 1950-12-07 15:00:00 NR -23.2465 59.6190 main 359 359 _____P________ -1 -23.2465 59.6190 99 2 5 153
1950335S09074 1951 109 SI MM NOT_NAMED 1950-12-07 18:00:00 NR -23.4428 59.7447 main 384 384 _____P________ -1 -23.4428 59.7447 99 4 147
1950335S09074 1951 109 SI MM NOT_NAMED 1950-12-07 21:00:00 NR -23.6087 59.8774 main 414 414 _____P________ -1 -23.6087 59.8774 99 4 141
1950335S09074 1951 109 SI MM NOT_NAMED 1950-12-08 00:00:00 NR -23.7518 60.0152 main 438 438 _____P________ -1 -23.7518 60.0152 99 4 137
1950335S09074 1951 109 SI MM NOT_NAMED 1950-12-08 03:00:00 NR -23.8798 60.1567 main 458 458 _____P________ -1 -23.8798 60.1567 99 4 134
1950335S09074 1951 109 SI MM NOT_NAMED 1950-12-08 06:00:00 NR -24.0000 60.3000 reunion main 473 _____O________ -1 -24.0000 60.3000 99 9.90000 4 133

About IBTrACS Database

This database is a web-friendly format of International Best Track Archive for Climate Stewardship (IBTrACS), a global best track data archive curated by NOAA dating back to 1842.

Updated: 2021-11-26